Time;durP1;ratioP1;P1;durP2;ratioP2;P2;SDS_P1;SDS_P2;PMS_P1;PMS_P2;Temp;Humidity;BMP_temperature;BMP_pressure;BME280_temperature;BME280_humidity;BME280_pressure;Samples;Min_cycle;Max_cycle;Signal;HPM_P1;HPM_P2
2023/03/18 00:02:10;;;;;;;11.50;6.50;;;14.10;85.20;;;;;;5027063;28;20549;-64
2023/03/18 00:04:36;;;;;;;11.40;5.90;;;14.10;85.00;;;;;;5032809;28;20180;-64
2023/03/18 00:07:02;;;;;;;6.67;5.97;;;14.10;85.20;;;;;;5032402;28;20294;-64
2023/03/18 00:09:27;;;;;;;7.93;6.37;;;14.10;84.90;;;;;;5033059;28;20289;-64
2023/03/18 00:11:55;;;;;;;9.03;5.50;;;14.10;85.00;;;;;;5032275;28;20202;-64
2023/03/18 00:14:22;;;;;;;6.80;5.30;;;14.10;84.80;;;;;;5032647;28;21379;-65
2023/03/18 00:16:49;;;;;;;8.50;6.00;;;14.10;84.80;;;;;;5031879;28;20466;-64
2023/03/18 00:19:16;;;;;;;6.30;5.60;;;14.10;84.70;;;;;;5023993;28;20825;-64
2023/03/18 00:21:42;;;;;;;9.33;5.23;;;14.10;84.50;;;;;;5030215;28;20470;-64
2023/03/18 00:24:08;;;;;;;8.67;5.80;;;14.00;84.60;;;;;;5026884;28;20446;-67
2023/03/18 00:26:35;;;;;;;10.47;6.00;;;13.90;84.50;;;;;;5037281;28;20204;-66
2023/03/18 00:29:01;;;;;;;7.83;5.10;;;13.90;84.90;;;;;;5034156;28;20485;-66
2023/03/18 00:31:27;;;;;;;8.03;5.77;;;13.90;85.00;;;;;;5030866;28;20516;-64
2023/03/18 00:33:52;;;;;;;6.57;5.63;;;13.90;85.20;;;;;;5036698;28;20209;-65
2023/03/18 00:36:24;;;;;;;6.80;6.00;;;13.90;85.00;;;;;;5029122;28;20486;-66
2023/03/18 00:38:52;;;;;;;9.63;6.90;;;13.80;85.10;;;;;;5035982;28;20294;-66
2023/03/18 00:41:17;;;;;;;8.13;6.30;;;13.80;85.10;;;;;;5037360;28;20454;-66
2023/03/18 00:43:53;;;;;;;7.70;5.20;;;13.70;85.30;;;;;;5029784;28;21034;-66
2023/03/18 00:46:24;;;;;;;12.50;5.83;;;13.70;85.50;;;;;;5030827;28;20204;-66
2023/03/18 00:48:53;;;;;;;10.60;6.70;;;13.70;85.60;;;;;;5032987;28;20428;-65
2023/03/18 00:51:21;;;;;;;7.33;5.53;;;13.70;85.80;;;;;;5030580;28;20806;-65
2023/03/18 00:53:50;;;;;;;9.20;6.40;;;13.80;85.00;;;;;;5029126;28;20438;-65
2023/03/18 00:56:18;;;;;;;7.33;5.37;;;13.80;85.00;;;;;;5031336;28;20451;-65
2023/03/18 00:58:44;;;;;;;10.30;6.23;;;13.70;85.40;;;;;;5028437;28;20437;-65
2023/03/18 01:01:11;;;;;;;8.50;4.80;;;13.70;84.90;;;;;;5031299;28;20447;-65
2023/03/18 01:03:38;;;;;;;7.53;5.77;;;13.60;85.20;;;;;;5027428;28;20529;-65
2023/03/18 01:06:04;;;;;;;6.93;5.83;;;13.60;85.40;;;;;;5030383;28;21003;-65
2023/03/18 01:08:30;;;;;;;9.73;4.80;;;13.60;85.50;;;;;;5026451;28;20704;-65
2023/03/18 01:10:56;;;;;;;7.80;5.13;;;13.60;85.50;;;;;;5029941;28;20478;-66
2023/03/18 01:13:24;;;;;;;11.03;5.20;;;13.50;85.40;;;;;;5032147;28;20507;-66
2023/03/18 01:15:50;;;;;;;6.33;4.73;;;13.50;85.50;;;;;;5025699;28;20521;-66
2023/03/18 01:18:17;;;;;;;7.67;5.60;;;13.50;85.70;;;;;;5032932;28;20869;-65
2023/03/18 01:20:43;;;;;;;9.57;6.53;;;13.50;85.80;;;;;;5028442;28;20484;-65
2023/03/18 01:23:09;;;;;;;9.23;5.80;;;13.50;85.50;;;;;;5025853;28;20461;-66
2023/03/18 01:25:36;;;;;;;10.20;5.30;;;13.50;85.70;;;;;;5032007;28;20438;-65
2023/03/18 01:28:02;;;;;;;8.47;5.57;;;13.40;86.10;;;;;;5027174;28;20448;-66
2023/03/18 01:30:29;;;;;;;10.40;6.20;;;13.40;86.20;;;;;;5030588;28;20446;-66
2023/03/18 01:32:55;;;;;;;7.63;6.17;;;13.40;86.40;;;;;;5028766;28;20438;-65
2023/03/18 01:35:21;;;;;;;8.47;5.97;;;13.40;86.40;;;;;;5032230;28;20438;-65
2023/03/18 01:37:46;;;;;;;7.30;5.70;;;13.30;86.30;;;;;;5029513;28;20731;-65
2023/03/18 01:40:13;;;;;;;6.73;5.40;;;13.30;86.50;;;;;;5027900;28;20184;-65
2023/03/18 01:42:39;;;;;;;7.97;5.63;;;13.30;86.30;;;;;;5027122;28;20307;-66
2023/03/18 01:45:22;;;;;;;8.67;5.97;;;13.30;86.60;;;;;;5029261;28;20525;-65
2023/03/18 01:47:48;;;;;;;7.87;5.23;;;13.30;87.10;;;;;;5032940;28;20473;-65
2023/03/18 01:50:17;;;;;;;7.10;5.50;;;13.30;86.90;;;;;;5030814;28;20441;-65
2023/03/18 01:52:45;;;;;;;7.43;5.53;;;13.30;86.70;;;;;;5026638;28;20438;-65
2023/03/18 01:55:18;;;;;;;6.47;5.00;;;13.30;86.40;;;;;;5029214;28;20435;-65
2023/03/18 01:57:44;;;;;;;6.67;4.90;;;13.20;86.90;;;;;;5031048;28;20461;-65
2023/03/18 02:00:10;;;;;;;7.90;5.10;;;13.20;86.20;;;;;;5023209;28;20456;-65
2023/03/18 02:02:41;;;;;;;5.97;4.87;;;13.20;86.40;;;;;;5028753;28;20469;-65
2023/03/18 02:05:10;;;;;;;7.10;5.27;;;13.20;86.40;;;;;;5026227;28;20516;-65
2023/03/18 02:07:36;;;;;;;6.97;4.47;;;13.20;86.40;;;;;;5026478;28;20461;-66
2023/03/18 02:10:12;;;;;;;5.07;4.20;;;13.20;86.20;;;;;;5026894;28;20445;-66
2023/03/18 02:12:41;;;;;;;6.37;4.70;;;13.20;86.30;;;;;;5030240;28;20426;-66
2023/03/18 02:15:10;;;;;;;8.33;5.10;;;13.30;85.60;;;;;;5025290;28;20631;-65
2023/03/18 02:17:40;;;;;;;5.27;4.77;;;13.30;85.40;;;;;;5026166;28;20978;-66
2023/03/18 02:20:21;;;;;;;8.53;5.20;;;13.30;85.40;;;;;;5030040;28;20464;-65
2023/03/18 02:22:52;;;;;;;6.10;4.90;;;13.20;85.40;;;;;;5022315;28;20474;-64
2023/03/18 02:25:56;;;;;;;6.30;4.83;;;13.10;85.50;;;;;;5026976;28;20434;-65
2023/03/18 02:28:26;;;;;;;12.47;4.90;;;13.10;85.40;;;;;;5028449;28;20423;-64
2023/03/18 02:30:55;;;;;;;5.83;4.97;;;13.10;85.30;;;;;;5021093;28;20439;-65
2023/03/18 02:33:23;;;;;;;7.10;4.87;;;13.10;85.60;;;;;;5027612;28;20427;-64
2023/03/18 02:35:54;;;;;;;5.80;4.57;;;13.00;85.70;;;;;;5024292;28;20453;-64
2023/03/18 02:38:20;;;;;;;5.93;4.30;;;13.00;85.70;;;;;;5027478;28;20844;-65
2023/03/18 02:40:45;;;;;;;5.90;4.17;;;13.00;85.60;;;;;;5030949;28;20438;-65
2023/03/18 02:43:19;;;;;;;5.30;4.80;;;13.00;85.70;;;;;;5028105;28;20489;-65
2023/03/18 02:45:57;;;;;;;7.50;4.47;;;13.00;85.80;;;;;;5033180;28;20181;-65
2023/03/18 02:48:26;;;;;;;9.73;4.80;;;13.00;85.60;;;;;;5026357;28;20480;-64
2023/03/18 02:50:52;;;;;;;6.90;4.43;;;12.90;85.60;;;;;;5030865;28;20487;-65
2023/03/18 02:53:18;;;;;;;6.60;4.40;;;12.90;85.80;;;;;;5030480;28;20521;-66
2023/03/18 02:55:44;;;;;;;7.83;3.60;;;12.90;86.00;;;;;;5030236;28;20513;-64
2023/03/18 02:58:10;;;;;;;8.17;4.33;;;12.90;85.90;;;;;;5026625;28;20691;-64
2023/03/18 03:00:36;;;;;;;5.10;4.03;;;12.90;86.40;;;;;;5033037;28;20488;-64
2023/03/18 03:03:04;;;;;;;4.83;4.17;;;12.90;86.90;;;;;;5031330;28;20454;-64
2023/03/18 03:05:30;;;;;;;6.40;4.17;;;12.90;86.70;;;;;;5032067;28;20873;-64
2023/03/18 03:07:55;;;;;;;5.77;4.10;;;12.90;87.20;;;;;;5028225;28;20459;-64
2023/03/18 03:10:21;;;;;;;5.17;4.03;;;12.90;87.20;;;;;;5028919;28;20448;-65
2023/03/18 03:12:47;;;;;;;5.83;3.93;;;12.90;87.30;;;;;;5035467;28;20246;-65
2023/03/18 03:15:13;;;;;;;7.20;4.10;;;12.90;87.30;;;;;;5031265;28;20188;-65
2023/03/18 03:17:40;;;;;;;10.90;5.70;;;12.90;87.20;;;;;;5029169;28;20446;-65
2023/03/18 03:20:07;;;;;;;14.87;4.80;;;12.90;87.10;;;;;;5026312;28;20577;-65
2023/03/18 03:22:33;;;;;;;9.80;4.43;;;12.90;87.70;;;;;;5033294;28;20462;-65
2023/03/18 03:25:00;;;;;;;6.20;4.17;;;12.80;88.20;;;;;;5032018;28;21232;-65
2023/03/18 03:27:26;;;;;;;11.47;4.73;;;12.80;88.40;;;;;;5030825;28;20522;-65
2023/03/18 03:29:51;;;;;;;7.37;4.80;;;12.80;88.60;;;;;;5030373;28;20442;-64
2023/03/18 03:32:17;;;;;;;6.27;4.50;;;12.70;88.50;;;;;;5034428;28;20520;-64
2023/03/18 03:34:43;;;;;;;5.60;4.47;;;12.70;89.30;;;;;;5032269;28;20188;-64
2023/03/18 03:37:08;;;;;;;5.63;4.57;;;12.70;89.30;;;;;;5028283;28;20219;-64
2023/03/18 03:39:34;;;;;;;6.07;4.43;;;12.70;89.40;;;;;;5032281;28;20180;-64
2023/03/18 03:41:59;;;;;;;5.03;4.07;;;12.60;89.30;;;;;;5032566;28;20528;-64
2023/03/18 03:44:25;;;;;;;5.03;4.00;;;12.60;89.90;;;;;;5028744;28;20334;-64
2023/03/18 03:46:51;;;;;;;5.80;4.30;;;12.60;90.00;;;;;;5028928;28;20196;-64
2023/03/18 03:49:17;;;;;;;10.33;4.67;;;12.60;90.00;;;;;;5032533;28;20641;-64
2023/03/18 03:51:43;;;;;;;9.33;4.30;;;12.60;90.30;;;;;;5029937;28;20192;-64
2023/03/18 03:54:11;;;;;;;4.63;4.10;;;12.60;90.30;;;;;;5027430;28;20426;-65
2023/03/18 03:56:37;;;;;;;6.07;4.10;;;12.60;90.30;;;;;;5033848;28;20196;-64
2023/03/18 03:59:03;;;;;;;6.20;4.37;;;12.50;90.20;;;;;;5031001;28;20542;-65
2023/03/18 04:01:29;;;;;;;7.27;5.40;;;12.50;90.30;;;;;;5029242;28;20204;-64
2023/03/18 04:03:55;;;;;;;5.40;3.90;;;12.50;90.30;;;;;;5031949;28;20180;-64
2023/03/18 04:06:21;;;;;;;5.77;3.77;;;12.50;90.40;;;;;;5028955;28;20446;-64
2023/03/18 04:08:46;;;;;;;9.73;4.70;;;12.50;90.40;;;;;;5024320;28;20255;-64
2023/03/18 04:11:12;;;;;;;5.87;4.50;;;12.40;90.60;;;;;;5029682;28;20253;-64
2023/03/18 04:13:37;;;;;;;5.80;4.40;;;12.40;90.80;;;;;;5029913;28;20335;-64
2023/03/18 04:16:03;;;;;;;9.20;4.70;;;12.40;90.90;;;;;;5027426;28;20191;-65
2023/03/18 04:18:29;;;;;;;7.27;5.80;;;12.30;91.30;;;;;;5031533;28;20260;-65
2023/03/18 04:20:55;;;;;;;8.30;4.00;;;12.30;91.30;;;;;;5032855;28;20518;-64
2023/03/18 04:23:21;;;;;;;6.27;4.13;;;12.30;91.30;;;;;;5030828;28;20459;-64
2023/03/18 04:25:46;;;;;;;6.17;4.57;;;12.30;91.50;;;;;;5034720;28;20666;-65
2023/03/18 04:28:13;;;;;;;4.97;4.47;;;12.20;91.40;;;;;;5030909;28;20645;-64
2023/03/18 04:30:38;;;;;;;6.57;4.70;;;12.20;91.70;;;;;;5031803;28;20199;-64
2023/03/18 04:33:04;;;;;;;6.53;4.13;;;12.20;91.80;;;;;;5026314;28;20463;-64
2023/03/18 04:35:30;;;;;;;5.53;4.50;;;12.20;91.90;;;;;;5035477;28;20234;-64
2023/03/18 04:37:55;;;;;;;5.43;3.83;;;12.20;91.90;;;;;;5034319;28;20920;-65
2023/03/18 04:40:21;;;;;;;5.83;4.43;;;12.20;91.80;;;;;;5028961;28;20192;-64
2023/03/18 04:42:47;;;;;;;4.53;3.97;;;12.20;91.90;;;;;;5032329;28;20710;-64
2023/03/18 04:45:14;;;;;;;7.20;4.33;;;12.20;92.00;;;;;;5032042;28;20172;-64
2023/03/18 04:47:41;;;;;;;4.77;3.90;;;12.10;91.90;;;;;;5028249;28;20330;-65
2023/03/18 04:50:10;;;;;;;6.90;4.67;;;12.10;92.00;;;;;;5017633;28;20443;-64
2023/03/18 04:52:40;;;;;;;8.17;4.60;;;12.10;92.20;;;;;;5026188;28;20442;-64
2023/03/18 04:55:07;;;;;;;9.23;4.60;;;12.10;92.30;;;;;;5032100;28;20462;-64
2023/03/18 04:57:34;;;;;;;6.70;4.67;;;12.10;92.30;;;;;;5028300;28;22011;-64
2023/03/18 05:00:01;;;;;;;5.13;4.00;;;12.10;92.30;;;;;;5026588;28;20439;-64
2023/03/18 05:02:26;;;;;;;9.50;5.10;;;12.10;92.30;;;;;;5033935;28;20491;-64
2023/03/18 05:04:52;;;;;;;5.40;4.03;;;12.00;92.50;;;;;;5031578;28;20473;-64
2023/03/18 05:07:17;;;;;;;6.10;4.10;;;12.00;92.50;;;;;;5034459;28;20716;-64
2023/03/18 05:09:43;;;;;;;4.70;4.20;;;12.00;92.80;;;;;;5030714;28;20185;-64
2023/03/18 05:12:13;;;;;;;6.40;4.70;;;12.00;93.30;;;;;;5029310;28;20182;-65
2023/03/18 05:14:41;;;;;;;7.73;5.03;;;12.00;93.40;;;;;;5030819;28;20184;-64
2023/03/18 05:17:07;;;;;;;7.47;4.80;;;12.00;93.30;;;;;;5030564;28;20468;-64
2023/03/18 05:19:33;;;;;;;6.43;5.20;;;12.10;93.50;;;;;;5027835;28;21068;-64
2023/03/18 05:21:59;;;;;;;6.77;4.20;;;12.10;93.40;;;;;;5016211;28;21370;-64
2023/03/18 05:24:24;;;;;;;7.17;4.57;;;12.10;93.50;;;;;;5027373;28;20197;-65
2023/03/18 05:26:50;;;;;;;6.27;4.63;;;12.10;93.60;;;;;;5030215;28;21048;-64
2023/03/18 05:29:16;;;;;;;5.07;4.57;;;12.10;93.70;;;;;;5029313;28;20287;-64
2023/03/18 05:31:42;;;;;;;9.23;5.40;;;12.10;93.70;;;;;;5024601;28;20666;-65
2023/03/18 05:34:08;;;;;;;4.73;4.23;;;12.10;93.90;;;;;;5034818;28;20434;-64
2023/03/18 05:36:33;;;;;;;6.97;4.80;;;12.10;94.00;;;;;;5025448;28;21165;-64
2023/03/18 05:38:59;;;;;;;9.50;5.27;;;12.10;94.20;;;;;;5023478;28;20558;-64
2023/03/18 05:41:25;;;;;;;5.50;4.53;;;12.10;94.10;;;;;;5021461;28;20267;-64
2023/03/18 05:43:50;;;;;;;8.70;4.63;;;12.10;94.20;;;;;;5031513;28;20592;-65
2023/03/18 05:46:16;;;;;;;7.03;4.83;;;12.10;94.40;;;;;;5026350;28;20244;-64
2023/03/18 05:48:42;;;;;;;5.90;4.70;;;12.10;94.70;;;;;;5024878;28;20176;-65
2023/03/18 05:51:08;;;;;;;5.77;4.53;;;12.00;94.80;;;;;;5030146;28;20427;-64
2023/03/18 05:53:34;;;;;;;8.40;5.10;;;12.00;95.00;;;;;;5030352;28;20984;-64
2023/03/18 05:55:59;;;;;;;5.90;4.53;;;12.00;95.20;;;;;;5029173;28;20561;-64
2023/03/18 05:58:29;;;;;;;9.23;6.03;;;12.00;95.10;;;;;;5033541;28;20449;-65
2023/03/18 06:00:55;;;;;;;8.90;4.83;;;12.00;95.10;;;;;;5034619;28;20173;-64
2023/03/18 06:03:23;;;;;;;7.60;5.40;;;12.00;95.20;;;;;;5031233;28;20507;-64
2023/03/18 06:05:49;;;;;;;6.70;4.87;;;11.90;95.40;;;;;;5031743;28;20868;-64
2023/03/18 06:08:14;;;;;;;8.03;5.70;;;11.90;95.50;;;;;;5027235;28;20443;-64
2023/03/18 06:10:40;;;;;;;7.17;5.00;;;11.90;95.60;;;;;;5020355;28;20879;-64
2023/03/18 06:13:06;;;;;;;14.13;6.20;;;11.90;95.80;;;;;;5018630;28;20191;-64
2023/03/18 06:15:32;;;;;;;10.20;5.07;;;11.90;95.90;;;;;;5025092;28;20199;-64
2023/03/18 06:17:57;;;;;;;7.37;5.50;;;11.90;96.30;;;;;;5033412;28;20462;-65
2023/03/18 06:20:23;;;;;;;6.83;4.63;;;11.90;96.20;;;;;;5027998;28;20204;-64
2023/03/18 06:22:49;;;;;;;9.53;5.80;;;11.90;96.30;;;;;;5030907;28;20203;-64
2023/03/18 06:25:20;;;;;;;7.00;4.90;;;11.90;96.30;;;;;;5032956;28;20431;-65
2023/03/18 06:27:46;;;;;;;7.23;5.30;;;11.90;96.60;;;;;;5029716;28;20214;-64
2023/03/18 06:30:12;;;;;;;8.20;6.23;;;11.80;96.60;;;;;;5023087;28;21335;-64
2023/03/18 06:32:39;;;;;;;8.43;6.33;;;11.80;96.80;;;;;;5024717;28;20521;-64
2023/03/18 06:35:05;;;;;;;8.93;5.90;;;11.80;96.80;;;;;;5026930;28;20529;-64
2023/03/18 06:37:31;;;;;;;6.77;4.90;;;11.80;97.20;;;;;;5036010;28;20458;-65
2023/03/18 06:39:57;;;;;;;12.27;6.60;;;11.80;97.50;;;;;;5030910;28;20446;-64
2023/03/18 06:42:22;;;;;;;10.93;6.33;;;11.80;97.70;;;;;;5033685;28;20200;-64
2023/03/18 06:44:50;;;;;;;11.33;6.83;;;11.80;98.10;;;;;;5033303;28;20168;-64
2023/03/18 06:47:21;;;;;;;8.23;6.10;;;11.80;98.30;;;;;;5025503;28;20249;-64
2023/03/18 06:49:47;;;;;;;11.27;6.80;;;11.80;98.60;;;;;;5031296;28;21289;-65
2023/03/18 06:52:13;;;;;;;13.10;7.13;;;11.80;98.90;;;;;;5029620;28;20959;-64
2023/03/18 06:54:39;;;;;;;12.63;8.20;;;11.80;99.70;;;;;;5027927;28;20574;-64
2023/03/18 06:57:06;;;;;;;9.93;6.70;;;11.70;99.70;;;;;;5034804;28;20206;-67
2023/03/18 06:59:32;;;;;;;11.30;6.73;;;11.70;99.90;;;;;;5029910;28;20429;-64
2023/03/18 07:01:58;;;;;;;9.07;6.47;;;11.80;99.90;;;;;;5016417;28;20463;-64
2023/03/18 07:04:24;;;;;;;10.23;6.90;;;11.80;99.90;;;;;;5028191;28;20179;-64
2023/03/18 07:06:51;;;;;;;10.13;7.00;;;11.80;99.90;;;;;;5028840;28;20960;-64
2023/03/18 07:09:17;;;;;;;8.90;7.07;;;11.80;99.90;;;;;;5030686;28;20528;-66
2023/03/18 07:11:45;;;;;;;10.43;6.70;;;11.80;99.90;;;;;;5029781;28;20842;-65
2023/03/18 07:14:13;;;;;;;8.10;7.10;;;11.80;99.90;;;;;;5030811;28;20862;-65
2023/03/18 07:16:39;;;;;;;8.80;6.27;;;11.80;99.90;;;;;;5030370;28;20462;-65
2023/03/18 07:19:06;;;;;;;7.50;6.47;;;11.90;99.90;;;;;;5024881;28;20967;-65
2023/03/18 07:21:32;;;;;;;8.30;5.97;;;11.90;99.90;;;;;;5024361;28;21223;-65
2023/03/18 07:23:57;;;;;;;7.30;5.53;;;11.90;99.90;;;;;;5028497;28;20833;-65
2023/03/18 07:26:24;;;;;;;11.50;6.93;;;12.00;99.90;;;;;;5030758;28;20445;-65
2023/03/18 07:28:50;;;;;;;10.00;5.20;;;12.00;99.90;;;;;;5030725;28;20235;-65
2023/03/18 07:31:16;;;;;;;8.90;5.30;;;12.00;99.90;;;;;;5023676;28;20430;-65
2023/03/18 07:33:42;;;;;;;6.57;5.20;;;12.10;99.90;;;;;;5033128;28;20418;-65
2023/03/18 07:36:07;;;;;;;7.27;5.63;;;12.20;99.90;;;;;;5026317;28;20269;-65
2023/03/18 07:38:33;;;;;;;10.00;5.37;;;12.20;99.90;;;;;;5035469;28;20168;-65
2023/03/18 07:40:59;;;;;;;6.20;4.90;;;12.30;99.90;;;;;;5033441;28;20175;-65
2023/03/18 07:43:25;;;;;;;5.43;4.90;;;12.30;99.60;;;;;;5029963;28;20894;-65
2023/03/18 07:45:50;;;;;;;8.27;5.50;;;12.40;99.40;;;;;;5034081;28;20176;-65
2023/03/18 07:48:16;;;;;;;6.20;5.20;;;12.40;98.80;;;;;;5029089;28;20238;-65
2023/03/18 07:50:42;;;;;;;6.13;5.00;;;12.50;99.10;;;;;;5032984;28;20223;-65
2023/03/18 07:53:07;;;;;;;6.47;5.57;;;12.50;99.00;;;;;;5033136;28;20204;-65
2023/03/18 07:55:33;;;;;;;8.13;5.60;;;12.60;99.20;;;;;;5030765;28;20188;-65
2023/03/18 07:57:58;;;;;;;6.27;4.70;;;12.70;99.00;;;;;;5035513;28;20236;-65
2023/03/18 08:00:24;;;;;;;9.83;4.40;;;12.70;98.90;;;;;;5033859;28;20191;-65
2023/03/18 08:02:50;;;;;;;10.57;4.57;;;12.80;97.80;;;;;;5040191;28;20243;-65
2023/03/18 08:05:19;;;;;;;9.70;4.50;;;12.80;98.60;;;;;;5035419;28;20185;-65
2023/03/18 08:07:44;;;;;;;7.77;4.40;;;12.90;97.90;;;;;;5037705;28;20869;-65
2023/03/18 08:10:11;;;;;;;5.70;4.10;;;12.90;97.20;;;;;;5034987;28;20891;-65
2023/03/18 08:12:37;;;;;;;7.90;4.53;;;13.00;97.10;;;;;;5031633;28;20179;-65
2023/03/18 08:15:03;;;;;;;5.57;3.80;;;13.00;96.40;;;;;;5033589;28;20512;-65
2023/03/18 08:17:29;;;;;;;5.87;3.80;;;13.00;96.30;;;;;;5036178;28;20524;-67
2023/03/18 08:19:55;;;;;;;6.17;3.90;;;13.10;96.50;;;;;;5032573;28;20541;-67
2023/03/18 08:22:21;;;;;;;5.20;3.30;;;13.10;95.90;;;;;;5036809;28;20204;-65
2023/03/18 08:24:47;;;;;;;5.90;3.73;;;13.20;96.10;;;;;;5030400;28;20175;-65
2023/03/18 08:27:12;;;;;;;4.50;4.00;;;13.30;95.60;;;;;;5025353;28;20199;-65
2023/03/18 08:29:38;;;;;;;5.27;3.37;;;13.30;95.60;;;;;;5025248;28;20739;-65
2023/03/18 08:32:04;;;;;;;6.27;5.13;;;13.40;95.60;;;;;;5030426;28;20263;-65
2023/03/18 08:34:29;;;;;;;7.90;4.57;;;13.50;96.00;;;;;;5030341;28;20193;-65
2023/03/18 08:36:55;;;;;;;3.90;3.10;;;13.60;94.90;;;;;;5029047;28;20549;-65
2023/03/18 08:39:21;;;;;;;4.00;3.40;;;13.70;94.40;;;;;;5031854;28;20206;-65
2023/03/18 08:41:48;;;;;;;3.80;2.70;;;13.80;93.20;;;;;;5032006;28;20212;-65
2023/03/18 08:44:14;;;;;;;4.40;3.00;;;14.00;92.30;;;;;;5034322;28;20961;-65
2023/03/18 08:46:40;;;;;;;6.30;3.17;;;14.10;90.40;;;;;;5029682;28;20515;-65
2023/03/18 08:49:06;;;;;;;5.47;3.10;;;14.20;90.30;;;;;;5033340;28;20848;-65
2023/03/18 08:51:32;;;;;;;4.77;3.53;;;14.30;90.00;;;;;;5029542;28;20183;-63
2023/03/18 08:53:59;;;;;;;6.90;4.30;;;14.40;89.80;;;;;;5029792;28;20558;-64
2023/03/18 08:56:25;;;;;;;3.83;3.40;;;14.50;89.10;;;;;;5030737;28;20522;-65
2023/03/18 08:58:50;;;;;;;3.90;2.90;;;14.50;88.10;;;;;;5031185;28;20858;-65
2023/03/18 09:01:18;;;;;;;5.27;3.50;;;14.60;88.10;;;;;;5026096;28;20180;-65
2023/03/18 09:03:44;;;;;;;4.13;2.90;;;14.60;87.40;;;;;;5024615;28;20180;-65
2023/03/18 09:06:10;;;;;;;7.47;3.60;;;14.70;87.20;;;;;;5033625;28;21076;-65
2023/03/18 09:08:38;;;;;;;4.43;2.87;;;14.70;87.60;;;;;;5036333;28;20203;-66
2023/03/18 09:11:04;;;;;;;4.90;3.63;;;14.70;88.30;;;;;;5028691;28;20462;-65
2023/03/18 09:13:29;;;;;;;5.60;3.53;;;14.70;88.80;;;;;;5025479;28;20779;-65
2023/03/18 09:15:55;;;;;;;7.40;3.20;;;14.80;88.20;;;;;;5025923;28;20803;-66
2023/03/18 09:18:21;;;;;;;5.63;4.10;;;14.80;88.30;;;;;;5030859;28;20180;-65
2023/03/18 09:20:47;;;;;;;5.10;3.10;;;14.90;89.00;;;;;;5029716;28;20192;-65
2023/03/18 09:23:14;;;;;;;6.43;3.13;;;15.00;87.00;;;;;;5033715;28;20512;-64
2023/03/18 09:25:43;;;;;;;6.73;3.10;;;15.00;87.60;;;;;;5028423;28;20427;-65
2023/03/18 09:28:09;;;;;;;3.80;2.30;;;15.20;85.70;;;;;;5029980;28;20501;-65
2023/03/18 09:30:36;;;;;;;5.73;2.60;;;15.30;83.50;;;;;;5029001;28;20455;-65
2023/03/18 09:33:04;;;;;;;4.87;2.73;;;15.50;81.60;;;;;;5027545;28;20481;-65
2023/03/18 09:35:30;;;;;;;4.13;2.70;;;15.60;80.30;;;;;;5030378;28;20585;-65
2023/03/18 09:37:56;;;;;;;5.00;2.77;;;15.70;79.90;;;;;;5033528;28;21018;-66
2023/03/18 09:40:25;;;;;;;5.03;2.60;;;15.90;77.80;;;;;;5034496;28;20183;-65
2023/03/18 09:43:01;;;;;;;6.53;3.00;;;16.00;77.00;;;;;;5034722;28;20200;-66
2023/03/18 09:45:43;;;;;;;6.43;2.87;;;16.10;75.10;;;;;;5038135;28;20505;-65
2023/03/18 09:48:38;;;;;;;6.57;3.13;;;16.20;74.50;;;;;;5032000;28;20434;-66
2023/03/18 09:51:13;;;;;;;5.13;2.70;;;16.10;75.00;;;;;;5028177;28;20454;-65
2023/03/18 09:53:44;;;;;;;3.90;2.60;;;16.30;74.90;;;;;;5030860;28;20846;-66
2023/03/18 09:56:16;;;;;;;3.67;2.50;;;16.30;74.10;;;;;;5028340;28;20522;-65
2023/03/18 09:58:59;;;;;;;5.67;3.33;;;16.40;73.80;;;;;;5030038;28;21087;-66
2023/03/18 10:01:27;;;;;;;4.03;2.70;;;16.60;73.80;;;;;;5035722;28;20417;-66
2023/03/18 10:04:12;;;;;;;2.60;2.40;;;16.70;72.50;;;;;;5030796;28;20918;-65
2023/03/18 10:06:41;;;;;;;3.57;3.27;;;16.70;71.90;;;;;;5027619;28;20450;-66
2023/03/18 10:09:32;;;;;;;4.07;3.67;;;16.80;70.50;;;;;;5028922;28;20499;-66
2023/03/18 10:12:30;;;;;;;3.97;2.60;;;16.90;69.70;;;;;;5031084;28;20427;-65
2023/03/18 10:15:09;;;;;;;3.77;2.50;;;17.00;68.60;;;;;;5034250;28;20430;-65
2023/03/18 10:17:38;;;;;;;2.53;2.23;;;17.20;67.40;;;;;;5031562;28;20448;-65
2023/03/18 10:20:16;;;;;;;3.67;3.00;;;17.20;67.20;;;;;;5034231;28;20475;-65
2023/03/18 10:22:53;;;;;;;3.67;2.70;;;17.40;67.30;;;;;;5036808;28;20503;-65
2023/03/18 10:25:24;;;;;;;3.37;2.77;;;17.40;67.40;;;;;;5036625;28;20437;-65
2023/03/18 10:28:22;;;;;;;3.63;2.63;;;17.40;67.40;;;;;;5031727;28;20836;-65
2023/03/18 10:31:13;;;;;;;6.50;2.83;;;17.50;66.80;;;;;;5032241;28;20418;-66
2023/03/18 10:33:45;;;;;;;5.30;2.70;;;17.60;66.90;;;;;;5032218;28;20874;-65
2023/03/18 10:36:38;;;;;;;3.47;2.87;;;17.50;65.60;;;;;;5030182;28;20799;-65
2023/03/18 10:39:11;;;;;;;8.00;2.60;;;17.50;64.60;;;;;;5029254;28;20498;-65
2023/03/18 10:41:38;;;;;;;3.43;2.70;;;17.50;66.10;;;;;;5029317;28;20939;-65
2023/03/18 10:44:22;;;;;;;3.30;2.60;;;17.50;65.30;;;;;;5029910;28;20458;-66
2023/03/18 10:47:08;;;;;;;4.20;2.90;;;17.50;65.30;;;;;;5035201;28;20435;-65
2023/03/18 10:49:39;;;;;;;5.20;3.20;;;17.50;65.50;;;;;;5027731;28;20416;-66
2023/03/18 10:52:12;;;;;;;3.83;3.13;;;17.40;65.60;;;;;;5032429;28;20435;-66
2023/03/18 10:54:49;;;;;;;3.30;2.60;;;17.50;66.00;;;;;;5034008;28;20485;-66
2023/03/18 10:57:16;;;;;;;3.33;2.77;;;17.60;65.80;;;;;;5031766;28;20442;-65
2023/03/18 10:59:46;;;;;;;5.70;3.07;;;17.70;66.00;;;;;;5027157;28;20418;-65
2023/03/18 11:02:35;;;;;;;4.80;2.60;;;17.80;65.20;;;;;;5031030;28;20458;-65
2023/03/18 11:05:04;;;;;;;6.10;3.27;;;17.80;64.20;;;;;;5035746;28;20807;-66
2023/03/18 11:07:32;;;;;;;4.97;2.73;;;17.70;64.60;;;;;;5029132;28;20955;-65
2023/03/18 11:10:22;;;;;;;4.30;2.83;;;17.70;65.00;;;;;;5034253;28;20915;-66
2023/03/18 11:12:47;;;;;;;4.83;3.07;;;17.60;65.70;;;;;;5035194;28;20669;-65
2023/03/18 11:15:18;;;;;;;5.20;3.00;;;17.50;66.30;;;;;;5034612;28;20529;-65
2023/03/18 11:17:48;;;;;;;4.40;2.53;;;17.60;65.70;;;;;;5031760;28;20386;-65
2023/03/18 11:20:20;;;;;;;7.70;2.90;;;17.60;65.80;;;;;;5029202;28;20807;-66
2023/03/18 11:22:51;;;;;;;5.70;2.70;;;17.70;65.00;;;;;;5037303;28;20484;-65
2023/03/18 11:25:19;;;;;;;7.03;3.30;;;17.80;64.70;;;;;;5037573;28;20422;-65
2023/03/18 11:27:47;;;;;;;4.03;2.90;;;17.90;64.80;;;;;;5040493;28;20429;-65
2023/03/18 11:30:25;;;;;;;3.50;2.93;;;18.00;64.10;;;;;;5034773;28;20804;-65
2023/03/18 11:32:57;;;;;;;8.40;3.77;;;18.00;63.70;;;;;;5040618;28;20428;-66
2023/03/18 11:35:36;;;;;;;5.83;2.70;;;18.20;63.30;;;;;;5035295;28;20426;-65
2023/03/18 11:38:03;;;;;;;4.87;2.60;;;18.50;63.70;;;;;;5036526;28;20878;-65
2023/03/18 11:40:30;;;;;;;4.60;2.60;;;18.40;61.10;;;;;;5038724;28;20421;-65
2023/03/18 11:43:01;;;;;;;4.60;2.83;;;18.50;60.90;;;;;;5038562;28;20467;-65
2023/03/18 11:45:46;;;;;;;4.13;2.60;;;19.00;60.30;;;;;;5035492;28;21053;-65
2023/03/18 11:48:22;;;;;;;5.60;2.80;;;19.10;58.90;;;;;;5032647;28;20458;-65
2023/03/18 11:51:13;;;;;;;3.80;2.60;;;19.20;59.80;;;;;;5029980;28;21027;-65
2023/03/18 11:54:06;;;;;;;6.23;2.57;;;19.60;59.00;;;;;;5036488;28;20618;-65
2023/03/18 11:56:37;;;;;;;6.80;2.70;;;19.80;57.60;;;;;;5031690;28;20463;-65
2023/03/18 11:59:22;;;;;;;3.83;2.40;;;19.80;57.60;;;;;;5040561;28;20431;-65
2023/03/18 12:02:11;;;;;;;4.63;2.63;;;20.00;56.90;;;;;;5033482;28;20982;-65
2023/03/18 12:05:11;;;;;;;3.03;2.30;;;20.00;56.80;;;;;;5031705;28;21198;-65
2023/03/18 12:07:51;;;;;;;5.17;2.73;;;20.30;55.60;;;;;;5030084;28;20489;-65
2023/03/18 12:11:04;;;;;;;4.30;2.97;;;20.40;55.20;;;;;;5032931;28;20487;-65
2023/03/18 12:13:49;;;;;;;14.20;2.90;;;21.10;55.10;;;;;;5036703;28;20430;-65
2023/03/18 12:16:40;;;;;;;3.00;2.60;;;23.20;52.60;;;;;;5029977;28;20462;-65
2023/03/18 12:19:13;;;;;;;4.20;2.60;;;23.90;50.50;;;;;;5035613;28;20480;-65
2023/03/18 12:21:56;;;;;;;3.40;2.50;;;23.90;49.00;;;;;;5031431;28;20429;-66
2023/03/18 12:24:47;;;;;;;6.73;2.90;;;24.10;50.10;;;;;;5039803;28;20504;-65
2023/03/18 12:27:19;;;;;;;4.00;2.57;;;24.90;48.40;;;;;;5030546;28;20457;-66
2023/03/18 12:30:13;;;;;;;3.80;2.70;;;24.10;47.50;;;;;;5029259;28;20438;-65
2023/03/18 12:32:47;;;;;;;4.60;2.70;;;23.70;48.90;;;;;;5031292;28;20823;-65
2023/03/18 12:35:44;;;;;;;5.47;2.50;;;24.10;49.20;;;;;;5036650;28;20512;-65
2023/03/18 12:38:21;;;;;;;3.50;2.57;;;24.70;48.50;;;;;;5036296;28;20458;-65
2023/03/18 12:40:46;;;;;;;4.03;3.00;;;24.70;46.40;;;;;;5035973;28;20505;-65
2023/03/18 12:43:36;;;;;;;8.17;3.20;;;24.70;47.40;;;;;;5035998;28;20580;-65
2023/03/18 12:46:21;;;;;;;3.10;2.80;;;25.80;46.30;;;;;;5027109;28;20177;-65
2023/03/18 12:49:21;;;;;;;5.50;3.23;;;27.40;45.80;;;;;;5029877;28;20517;-65
2023/03/18 12:52:19;;;;;;;2.87;2.57;;;28.90;42.80;;;;;;5035781;28;20435;-65
2023/03/18 12:55:28;;;;;;;3.07;2.77;;;29.40;39.50;;;;;;5036936;28;20430;-65
2023/03/18 12:58:14;;;;;;;6.33;2.80;;;29.30;40.00;;;;;;5032866;28;20454;-66
2023/03/18 13:00:52;;;;;;;2.67;2.47;;;29.60;38.70;;;;;;5030614;28;20951;-65